createdAt,value
2018-09-26T00:00:28.595Z,0.00
2018-09-26T00:01:28.620Z,0.00
2018-09-26T00:02:28.647Z,0.00
2018-09-26T00:03:28.671Z,0.00
2018-09-26T00:04:28.696Z,0.00
2018-09-26T00:05:28.723Z,0.00
2018-09-26T00:06:28.747Z,0.00
2018-09-26T00:07:28.774Z,0.00
2018-09-26T00:08:28.798Z,0.00
2018-09-26T00:09:28.826Z,0.00
2018-09-26T00:10:28.849Z,0.00
2018-09-26T00:11:28.895Z,0.00
2018-09-26T00:12:28.901Z,0.00
2018-09-26T00:13:28.927Z,0.00
2018-09-26T00:14:29.001Z,0.00
2018-09-26T00:15:28.977Z,0.00
2018-09-26T00:16:29.006Z,0.00
2018-09-26T00:17:29.030Z,0.00
2018-09-26T00:18:29.056Z,0.00
2018-09-26T00:19:29.080Z,0.00
2018-09-26T00:20:29.106Z,0.00
2018-09-26T00:21:29.132Z,0.00
2018-09-26T00:22:29.156Z,0.00
2018-09-26T00:23:29.189Z,0.00
2018-09-26T00:24:29.207Z,0.00
2018-09-26T00:25:29.233Z,0.00
2018-09-26T00:26:29.260Z,0.00
2018-09-26T00:27:29.283Z,0.00
2018-09-26T00:28:29.309Z,0.00
2018-09-26T00:29:29.336Z,0.00
2018-09-26T00:30:29.360Z,0.00
2018-09-26T00:31:29.386Z,0.00
2018-09-26T00:32:29.413Z,0.00
2018-09-26T00:33:29.442Z,0.00
2018-09-26T00:34:29.476Z,0.00
2018-09-26T00:35:29.487Z,0.00
2018-09-26T00:36:29.515Z,0.00
2018-09-26T00:37:29.550Z,0.00
2018-09-26T00:38:29.563Z,0.00
2018-09-26T00:39:29.588Z,0.00
2018-09-26T00:40:29.614Z,0.00
2018-09-26T00:41:29.641Z,0.00
2018-09-26T00:42:29.663Z,0.00
2018-09-26T00:43:29.690Z,0.00
2018-09-26T00:44:29.717Z,0.00
2018-09-26T00:45:29.741Z,0.00
2018-09-26T00:46:29.765Z,0.00
2018-09-26T00:47:29.791Z,0.00
2018-09-26T00:48:29.816Z,0.00
2018-09-26T00:49:29.845Z,0.00
2018-09-26T00:50:29.866Z,0.00
2018-09-26T00:51:29.911Z,0.00
2018-09-26T00:52:29.917Z,0.00
2018-09-26T00:53:29.944Z,0.00
2018-09-26T00:54:29.972Z,0.00
2018-09-26T00:55:29.994Z,0.00
2018-09-26T00:56:30.018Z,0.00
2018-09-26T00:57:30.046Z,0.00
2018-09-26T00:58:30.068Z,0.00
2018-09-26T00:59:30.098Z,0.00
2018-09-26T01:00:30.120Z,0.00
2018-09-26T01:01:30.144Z,0.00
2018-09-26T01:02:30.187Z,0.00
2018-09-26T01:03:30.194Z,0.00
2018-09-26T01:04:30.222Z,0.00
2018-09-26T01:05:30.247Z,0.00
2018-09-26T01:06:30.270Z,0.00
2018-09-26T01:07:30.295Z,0.00
2018-09-26T01:08:30.322Z,0.00
2018-09-26T01:09:30.367Z,0.00
2018-09-26T01:10:30.374Z,0.00
2018-09-26T01:11:30.395Z,0.00
2018-09-26T01:12:30.424Z,0.00
2018-09-26T01:13:30.448Z,0.00
2018-09-26T01:14:30.473Z,0.00
2018-09-26T01:15:30.497Z,0.00
2018-09-26T01:16:30.524Z,0.00
2018-09-26T01:17:30.547Z,0.00
2018-09-26T01:18:30.575Z,0.00
2018-09-26T01:19:30.600Z,0.00
2018-09-26T01:20:30.623Z,0.00
2018-09-26T01:21:30.652Z,0.00
2018-09-26T01:22:30.673Z,0.00
2018-09-26T01:23:30.701Z,0.00
2018-09-26T01:24:30.724Z,0.00
2018-09-26T01:25:30.750Z,0.00
2018-09-26T01:26:30.775Z,0.00
2018-09-26T01:27:30.801Z,0.00
2018-09-26T01:28:30.827Z,0.00
2018-09-26T01:29:30.870Z,0.00
2018-09-26T01:30:30.876Z,0.00
2018-09-26T01:31:30.902Z,0.00
2018-09-26T01:32:30.928Z,0.00
2018-09-26T01:33:30.953Z,0.00
2018-09-26T01:34:30.975Z,0.00
2018-09-26T01:35:31.002Z,0.00
2018-09-26T01:36:31.027Z,0.00
2018-09-26T01:37:31.053Z,0.00
2018-09-26T01:38:31.076Z,0.00
2018-09-26T01:39:31.103Z,0.00
2018-09-26T01:40:31.127Z,0.00
2018-09-26T01:41:31.200Z,0.00
2018-09-26T01:42:31.178Z,0.00
2018-09-26T01:43:31.202Z,0.00
2018-09-26T01:44:31.230Z,0.00
2018-09-26T01:45:31.252Z,0.00
2018-09-26T01:46:31.277Z,0.00
2018-09-26T01:47:31.302Z,0.00
2018-09-26T01:48:31.330Z,0.00
2018-09-26T01:49:31.355Z,0.00
2018-09-26T01:50:31.383Z,0.00
2018-09-26T01:51:31.404Z,0.00
2018-09-26T01:52:31.431Z,0.00
2018-09-26T01:53:31.461Z,0.00
2018-09-26T01:54:31.481Z,0.00
2018-09-26T01:55:31.505Z,0.00
2018-09-26T01:56:31.532Z,0.00
2018-09-26T01:57:31.555Z,0.00
2018-09-26T01:58:31.598Z,0.00
2018-09-26T01:59:31.608Z,0.00
2018-09-26T02:00:31.632Z,0.00
2018-09-26T02:01:31.656Z,0.00
2018-09-26T02:02:31.688Z,0.00
2018-09-26T02:03:31.709Z,0.00
2018-09-26T02:04:31.731Z,0.00
2018-09-26T02:05:31.757Z,0.00
2018-09-26T02:06:31.780Z,0.00
2018-09-26T02:07:31.806Z,0.00
2018-09-26T02:08:31.832Z,0.00
2018-09-26T02:09:31.859Z,0.00
2018-09-26T02:10:31.883Z,0.00
2018-09-26T02:11:31.910Z,0.00
2018-09-26T02:12:31.935Z,0.00
2018-09-26T02:13:31.960Z,0.00
2018-09-26T02:14:32.310Z,0.00
2018-09-26T02:15:32.015Z,0.00
2018-09-26T02:16:32.036Z,0.00
2018-09-26T02:17:32.060Z,0.00
2018-09-26T02:18:32.086Z,0.00
2018-09-26T02:19:32.110Z,0.00
2018-09-26T02:20:32.466Z,0.00
2018-09-26T02:21:32.161Z,0.00
2018-09-26T02:22:32.185Z,0.00
2018-09-26T02:23:32.266Z,0.00
2018-09-26T02:24:32.236Z,0.00
2018-09-26T02:25:32.262Z,0.00
2018-09-26T02:26:32.287Z,0.00
2018-09-26T02:27:32.312Z,0.00
2018-09-26T02:28:32.337Z,0.00
2018-09-26T02:29:32.382Z,0.00
2018-09-26T02:30:32.590Z,0.00
2018-09-26T02:31:32.412Z,0.00
2018-09-26T02:32:32.437Z,0.00
2018-09-26T02:33:32.464Z,0.00
2018-09-26T02:34:32.487Z,0.00
2018-09-26T02:35:32.514Z,0.00
2018-09-26T02:36:32.538Z,0.00
2018-09-26T02:37:32.564Z,0.00
2018-09-26T02:38:32.588Z,0.00
2018-09-26T02:39:32.615Z,0.00
2018-09-26T02:40:32.643Z,0.00
2018-09-26T02:41:32.667Z,0.00
2018-09-26T02:42:32.689Z,0.00
2018-09-26T02:43:32.713Z,0.00
2018-09-26T02:44:32.739Z,0.00
2018-09-26T02:45:32.765Z,0.00
2018-09-26T02:46:32.789Z,0.00
2018-09-26T02:47:32.817Z,0.00
2018-09-26T02:48:32.847Z,0.00
2018-09-26T02:49:32.866Z,0.00
2018-09-26T02:50:32.890Z,0.00
2018-09-26T02:51:32.914Z,0.00
2018-09-26T02:52:32.940Z,0.00
2018-09-26T02:53:32.966Z,0.00
2018-09-26T02:54:32.990Z,0.00
2018-09-26T02:55:33.039Z,0.00
2018-09-26T02:56:33.041Z,0.00
2018-09-26T02:57:33.065Z,0.00
2018-09-26T02:58:33.092Z,0.00
2018-09-26T02:59:33.116Z,0.00
2018-09-26T03:00:33.141Z,0.00
2018-09-26T03:01:33.166Z,0.00
2018-09-26T03:02:33.191Z,0.00
2018-09-26T03:03:33.215Z,0.00
2018-09-26T03:04:33.260Z,0.00
2018-09-26T03:05:33.269Z,0.00
2018-09-26T03:06:33.297Z,0.00
2018-09-26T03:07:33.319Z,0.00
2018-09-26T03:08:33.341Z,0.00
2018-09-26T03:09:33.366Z,0.00
2018-09-26T03:10:33.392Z,0.00
2018-09-26T03:11:33.415Z,0.00
2018-09-26T03:12:33.441Z,0.00
2018-09-26T03:13:33.467Z,0.00
2018-09-26T03:14:33.492Z,0.00
2018-09-26T03:15:33.517Z,0.00
2018-09-26T03:16:33.543Z,0.00
2018-09-26T03:17:33.609Z,0.00
2018-09-26T03:18:33.591Z,0.00
2018-09-26T03:19:33.618Z,0.00
2018-09-26T03:20:33.640Z,0.00
2018-09-26T03:21:33.666Z,0.00
2018-09-26T03:22:33.695Z,0.00
2018-09-26T03:23:33.720Z,0.00
2018-09-26T03:24:33.742Z,0.00
2018-09-26T03:25:33.768Z,0.00
2018-09-26T03:26:33.791Z,0.00
2018-09-26T03:27:33.818Z,0.00
2018-09-26T03:28:33.843Z,0.00
2018-09-26T03:29:33.867Z,0.00
2018-09-26T03:30:33.891Z,0.00
2018-09-26T03:31:33.918Z,0.00
2018-09-26T03:32:33.942Z,0.00
2018-09-26T03:33:33.991Z,0.00
2018-09-26T03:34:33.992Z,0.00
2018-09-26T03:35:34.016Z,0.00
2018-09-26T03:36:34.042Z,0.00
2018-09-26T03:37:34.068Z,0.00
2018-09-26T03:38:34.090Z,0.00
2018-09-26T03:39:34.116Z,0.00
2018-09-26T03:40:34.151Z,0.00
2018-09-26T03:41:34.166Z,0.00
2018-09-26T03:42:34.194Z,0.00
2018-09-26T03:43:34.217Z,0.00
2018-09-26T03:44:34.245Z,0.00
2018-09-26T03:45:34.266Z,0.00
2018-09-26T03:46:34.291Z,0.00
2018-09-26T03:47:34.315Z,0.00
2018-09-26T03:48:34.343Z,0.00
2018-09-26T03:49:34.367Z,0.00
2018-09-26T03:50:34.390Z,0.00
2018-09-26T03:51:34.414Z,0.00
2018-09-26T03:52:34.441Z,0.00
2018-09-26T03:53:34.470Z,0.00
2018-09-26T03:54:34.489Z,0.00
2018-09-26T03:55:34.516Z,0.00
2018-09-26T03:56:34.540Z,0.00
2018-09-26T03:57:34.565Z,0.00
2018-09-26T03:58:34.592Z,0.00
2018-09-26T03:59:34.615Z,0.00
2018-09-26T04:00:34.643Z,0.00
2018-09-26T04:01:34.667Z,0.00
2018-09-26T04:02:34.690Z,0.00
2018-09-26T04:03:34.716Z,0.00
2018-09-26T04:04:34.741Z,0.00
2018-09-26T04:05:34.768Z,0.00
2018-09-26T04:06:34.790Z,0.00
2018-09-26T04:07:34.818Z,0.00
2018-09-26T04:08:34.839Z,0.00
2018-09-26T04:09:34.882Z,0.00
2018-09-26T04:10:34.893Z,0.00
2018-09-26T04:11:34.915Z,0.00
2018-09-26T04:12:34.953Z,0.00
2018-09-26T04:13:34.965Z,0.00
2018-09-26T04:14:34.990Z,0.00
2018-09-26T04:15:35.082Z,0.00
2018-09-26T04:16:35.041Z,0.00
2018-09-26T04:17:35.067Z,0.00
2018-09-26T04:18:35.093Z,0.00
2018-09-26T04:19:35.117Z,0.00
2018-09-26T04:20:35.143Z,0.00
2018-09-26T04:21:35.166Z,0.00
2018-09-26T04:22:35.191Z,0.00
2018-09-26T04:23:35.216Z,0.00
2018-09-26T04:24:35.244Z,0.00
2018-09-26T04:25:35.271Z,0.00
2018-09-26T04:26:35.386Z,0.00
2018-09-26T04:27:35.404Z,0.00
2018-09-26T04:28:35.343Z,0.00
2018-09-26T04:29:35.457Z,0.00
2018-09-26T04:30:35.458Z,0.00
2018-09-26T04:31:35.417Z,0.00
2018-09-26T04:32:35.466Z,0.00
2018-09-26T04:33:35.587Z,0.00
2018-09-26T04:34:35.492Z,0.00
2018-09-26T04:35:35.517Z,0.00
2018-09-26T04:36:35.544Z,0.00
2018-09-26T04:37:35.569Z,0.00
2018-09-26T04:38:35.629Z,0.00
2018-09-26T04:39:35.619Z,0.00
2018-09-26T04:40:35.642Z,0.00
2018-09-26T04:41:35.672Z,0.00
2018-09-26T04:42:35.691Z,0.00
2018-09-26T04:43:35.717Z,0.00
2018-09-26T04:44:35.743Z,0.00
2018-09-26T04:45:35.768Z,0.00
2018-09-26T04:46:35.791Z,0.00
2018-09-26T04:47:35.818Z,0.00
2018-09-26T04:48:35.841Z,0.00
2018-09-26T04:49:35.870Z,0.00
2018-09-26T04:50:35.894Z,0.00
2018-09-26T04:51:35.918Z,0.00
2018-09-26T04:52:35.941Z,4.00
2018-09-26T04:53:35.967Z,4.00
2018-09-26T04:54:35.999Z,4.00
2018-09-26T04:55:36.021Z,4.00
2018-09-26T04:56:36.044Z,4.00
2018-09-26T04:57:36.069Z,4.00
2018-09-26T04:58:36.093Z,8.00
2018-09-26T04:59:36.116Z,8.00
2018-09-26T05:00:36.142Z,12.00
2018-09-26T05:01:36.167Z,12.00
2018-09-26T05:02:36.194Z,12.00
2018-09-26T05:03:36.216Z,12.00
2018-09-26T05:04:36.242Z,16.00
2018-09-26T05:05:36.268Z,24.00
2018-09-26T05:06:36.291Z,24.00
2018-09-26T05:07:36.316Z,28.00
2018-09-26T05:08:36.342Z,36.00
2018-09-26T05:09:36.368Z,40.00
2018-09-26T05:10:36.391Z,40.00
2018-09-26T05:11:36.416Z,48.00
2018-09-26T05:12:36.444Z,60.00
2018-09-26T05:13:36.469Z,64.00
2018-09-26T05:14:36.547Z,72.00
2018-09-26T05:15:37.325Z,80.00
2018-09-26T05:16:36.545Z,88.00
2018-09-26T05:17:36.769Z,96.00
2018-09-26T05:18:36.637Z,104.00
2018-09-26T05:19:36.620Z,112.00
2018-09-26T05:20:36.644Z,120.00
2018-09-26T05:21:36.669Z,128.00
2018-09-26T05:22:36.711Z,136.00
2018-09-26T05:23:36.718Z,148.00
2018-09-26T05:24:36.741Z,160.00
2018-09-26T05:25:36.770Z,176.00
2018-09-26T05:26:36.791Z,192.00
2018-09-26T05:27:36.819Z,212.00
2018-09-26T05:28:36.846Z,236.00
2018-09-26T05:29:36.867Z,264.00
2018-09-26T05:30:36.892Z,292.00
2018-09-26T05:31:36.916Z,328.00
2018-09-26T05:32:36.947Z,364.00
2018-09-26T05:33:36.967Z,396.00
2018-09-26T05:34:36.995Z,428.00
2018-09-26T05:35:37.025Z,452.00
2018-09-26T05:36:37.044Z,480.00
2018-09-26T05:37:37.069Z,504.00
2018-09-26T05:38:37.094Z,536.00
2018-09-26T05:39:37.119Z,564.00
2018-09-26T05:40:37.142Z,604.00
2018-09-26T05:41:37.219Z,640.00
2018-09-26T05:42:37.192Z,680.00
2018-09-26T05:43:37.221Z,724.00
2018-09-26T05:44:37.243Z,768.00
2018-09-26T05:45:37.268Z,812.00
2018-09-26T05:46:37.293Z,860.00
2018-09-26T05:47:37.319Z,904.00
2018-09-26T05:48:37.344Z,952.00
2018-09-26T05:49:37.369Z,996.00
2018-09-26T05:50:37.394Z,1048.00
2018-09-26T05:51:37.420Z,1088.00
2018-09-26T05:52:37.448Z,1136.00
2018-09-26T05:53:37.555Z,1172.00
2018-09-26T05:54:37.493Z,1200.00
2018-09-26T05:55:37.518Z,1232.00
2018-09-26T05:56:37.544Z,1256.00
2018-09-26T05:57:37.570Z,1284.00
2018-09-26T05:58:37.593Z,1308.00
2018-09-26T05:59:37.631Z,1336.00
2018-09-26T06:00:37.646Z,1376.00
2018-09-26T06:01:37.670Z,1424.00
2018-09-26T06:02:37.694Z,1476.00
2018-09-26T06:03:37.719Z,1544.00
2018-09-26T06:04:37.746Z,1616.00
2018-09-26T06:05:37.778Z,1704.00
2018-09-26T06:06:37.795Z,1796.00
2018-09-26T06:07:37.824Z,1892.00
2018-09-26T06:08:37.848Z,2004.00
2018-09-26T06:09:37.874Z,2116.00
2018-09-26T06:10:37.895Z,2236.00
2018-09-26T06:11:37.937Z,2344.00
2018-09-26T06:12:37.946Z,2456.00
2018-09-26T06:13:37.973Z,2556.00
2018-09-26T06:14:37.997Z,2656.00
2018-09-26T06:15:38.025Z,2744.00
2018-09-26T06:16:38.047Z,2828.00
2018-09-26T06:17:38.074Z,2912.00
2018-09-26T06:18:38.100Z,2988.00
2018-09-26T06:19:38.125Z,3064.00
2018-09-26T06:20:38.148Z,3144.00
2018-09-26T06:21:38.175Z,3228.00
2018-09-26T06:22:38.199Z,3316.00
2018-09-26T06:23:38.224Z,3416.00
2018-09-26T06:24:38.277Z,3528.00
2018-09-26T06:25:38.276Z,3660.00
2018-09-26T06:26:38.302Z,3792.00
2018-09-26T06:27:38.326Z,3936.00
2018-09-26T06:28:38.351Z,4052.00
2018-09-26T06:29:38.377Z,4164.00
2018-09-26T06:30:38.403Z,4264.00
2018-09-26T06:31:38.431Z,4364.00
2018-09-26T06:32:38.455Z,4468.00
2018-09-26T06:33:38.480Z,4584.00
2018-09-26T06:34:38.505Z,4712.00
2018-09-26T06:35:38.528Z,4856.00
2018-09-26T06:36:38.557Z,5008.00
2018-09-26T06:37:38.582Z,5160.00
2018-09-26T06:38:38.627Z,5316.00
2018-09-26T06:39:38.634Z,5468.00
2018-09-26T06:40:38.657Z,5632.00
2018-09-26T06:41:38.684Z,5804.00
2018-09-26T06:42:38.708Z,5956.00
2018-09-26T06:43:38.732Z,6068.00
2018-09-26T06:44:38.758Z,6156.00
2018-09-26T06:45:38.785Z,6228.00
2018-09-26T06:46:38.809Z,6260.00
2018-09-26T06:47:38.894Z,6284.00
2018-09-26T06:48:38.861Z,6296.00
2018-09-26T06:49:38.888Z,6284.00
2018-09-26T06:50:38.910Z,6244.00
2018-09-26T06:51:38.946Z,6188.00
2018-09-26T06:52:38.967Z,6112.00
2018-09-26T06:53:38.999Z,6040.00
2018-09-26T06:54:39.015Z,5996.00
2018-09-26T06:55:39.045Z,5940.00
2018-09-26T06:56:39.067Z,5912.00
2018-09-26T06:57:39.092Z,5916.00
2018-09-26T06:58:39.120Z,5948.00
2018-09-26T06:59:39.144Z,6020.00
2018-09-26T07:00:39.177Z,6136.00
2018-09-26T07:01:39.196Z,6288.00
2018-09-26T07:02:39.237Z,6468.00
2018-09-26T07:03:39.249Z,6660.00
2018-09-26T07:04:39.276Z,6856.00
2018-09-26T07:05:39.299Z,7060.00
2018-09-26T07:06:39.324Z,7244.00
2018-09-26T07:07:39.350Z,7420.00
2018-09-26T07:08:39.378Z,7584.00
2018-09-26T07:09:39.419Z,7744.00
2018-09-26T07:10:42.456Z,7892.00
2018-09-26T07:11:39.453Z,8048.00
2018-09-26T07:12:39.479Z,8208.00
2018-09-26T07:13:39.507Z,8368.00
2018-09-26T07:14:39.533Z,8528.00
2018-09-26T07:15:39.558Z,8704.00
2018-09-26T07:16:39.583Z,8892.00
2018-09-26T07:17:39.612Z,9088.00
2018-09-26T07:18:39.640Z,9284.00
2018-09-26T07:19:39.663Z,9472.00
2018-09-26T07:20:39.689Z,9656.00
2018-09-26T07:21:39.714Z,9844.00
2018-09-26T07:22:39.741Z,10044.00
2018-09-26T07:23:39.765Z,10228.00
2018-09-26T07:24:39.792Z,10476.00
2018-09-26T07:25:39.819Z,10728.00
2018-09-26T07:26:39.843Z,10940.00
2018-09-26T07:27:39.872Z,11200.00
2018-09-26T07:28:39.897Z,11620.00
2018-09-26T07:29:39.924Z,12092.00
2018-09-26T07:30:39.948Z,12404.00
2018-09-26T07:31:39.977Z,12744.00
2018-09-26T07:32:40.004Z,13304.00
2018-09-26T07:33:40.029Z,14468.00
2018-09-26T07:34:40.059Z,15164.00
2018-09-26T07:35:40.079Z,15368.00
2018-09-26T07:36:40.105Z,15436.00
2018-09-26T07:37:40.133Z,14712.00
2018-09-26T07:38:40.160Z,15784.00
2018-09-26T07:39:40.188Z,14624.00
2018-09-26T07:40:40.212Z,13920.00
2018-09-26T07:41:40.238Z,13952.00
2018-09-26T07:42:40.267Z,13356.00
2018-09-26T07:43:40.292Z,13120.00
2018-09-26T07:44:40.317Z,13416.00
2018-09-26T07:45:40.356Z,14620.00
2018-09-26T07:46:40.372Z,15192.00
2018-09-26T07:47:40.397Z,16076.00
2018-09-26T07:48:40.423Z,17472.00
2018-09-26T07:49:40.451Z,19008.00
2018-09-26T07:50:40.478Z,20224.00
2018-09-26T07:51:40.505Z,21888.00
2018-09-26T07:52:40.532Z,22752.00
2018-09-26T07:53:40.559Z,22944.00
2018-09-26T07:54:40.585Z,22848.00
2018-09-26T07:55:40.611Z,22880.00
2018-09-26T07:56:40.640Z,23648.00
2018-09-26T07:57:40.665Z,21120.00
2018-09-26T07:58:40.695Z,23072.00
2018-09-26T07:59:40.719Z,26272.00
2018-09-26T08:00:40.748Z,26816.00
2018-09-26T08:01:40.804Z,28192.00
2018-09-26T08:02:40.800Z,28768.00
2018-09-26T08:03:40.826Z,29408.00
2018-09-26T08:04:40.857Z,29632.00
2018-09-26T08:05:40.887Z,28000.00
2018-09-26T08:06:40.911Z,27616.00
2018-09-26T08:07:40.936Z,28608.00
2018-09-26T08:08:40.966Z,27584.00
2018-09-26T08:09:40.994Z,28512.00
2018-09-26T08:10:41.019Z,29856.00
2018-09-26T08:11:41.102Z,30400.00
2018-09-26T08:12:41.074Z,31424.00
2018-09-26T08:13:41.102Z,31712.00
2018-09-26T08:14:41.131Z,31808.00
2018-09-26T08:15:41.158Z,32000.00
2018-09-26T08:16:41.187Z,33024.00
2018-09-26T08:17:41.214Z,33664.00
2018-09-26T08:18:41.467Z,33856.00
2018-09-26T08:19:41.287Z,34528.00
2018-09-26T08:20:41.300Z,33152.00
2018-09-26T08:21:41.329Z,32992.00
2018-09-26T08:22:41.355Z,29792.00
2018-09-26T08:23:41.396Z,31264.00
2018-09-26T08:24:41.413Z,31328.00
2018-09-26T08:25:41.439Z,31872.00
2018-09-26T08:26:41.470Z,30784.00
2018-09-26T08:27:41.495Z,30368.00
2018-09-26T08:28:41.523Z,33664.00
2018-09-26T08:29:41.561Z,36608.00
2018-09-26T08:30:41.582Z,37184.00
2018-09-26T08:31:41.612Z,36672.00
2018-09-26T08:32:41.640Z,36256.00
2018-09-26T08:33:41.666Z,33664.00
2018-09-26T08:34:41.694Z,34880.00
2018-09-26T08:35:41.724Z,34528.00
2018-09-26T08:36:41.753Z,30880.00
2018-09-26T08:37:41.783Z,27584.00
2018-09-26T08:38:41.829Z,25568.00
2018-09-26T08:39:41.846Z,24896.00
2018-09-26T08:40:41.867Z,25536.00
2018-09-26T08:41:41.900Z,26816.00
2018-09-26T08:42:41.925Z,32352.00
2018-09-26T08:43:41.992Z,33120.00
2018-09-26T08:44:41.981Z,34560.00
2018-09-26T08:45:42.010Z,38144.00
2018-09-26T08:46:42.041Z,40928.00
2018-09-26T08:47:42.069Z,41408.00
2018-09-26T08:48:42.101Z,40576.00
2018-09-26T08:49:42.128Z,48064.00
2018-09-26T08:50:42.154Z,42048.00
2018-09-26T08:51:42.183Z,45696.00
2018-09-26T08:52:42.214Z,52192.00
2018-09-26T08:53:42.264Z,56864.00
2018-09-26T08:54:42.270Z,55296.00
2018-09-26T08:55:42.299Z,61952.00
2018-09-26T08:56:42.328Z,57632.00
2018-09-26T08:57:42.357Z,54368.00
2018-09-26T08:58:42.388Z,53920.00
2018-09-26T08:59:42.466Z,52288.00
2018-09-26T09:00:42.448Z,46208.00
2018-09-26T09:01:42.477Z,53056.00
2018-09-26T09:02:42.505Z,54496.00
2018-09-26T09:03:42.535Z,53120.00
2018-09-26T09:04:42.564Z,52384.00
2018-09-26T09:05:42.596Z,52864.00
2018-09-26T09:06:42.623Z,55008.00
2018-09-26T09:07:42.653Z,53792.00
2018-09-26T09:08:42.686Z,51552.00
2018-09-26T09:09:42.716Z,48544.00
2018-09-26T09:10:42.743Z,46624.00
2018-09-26T09:11:42.812Z,45408.00
2018-09-26T09:12:42.804Z,46688.00
2018-09-26T09:13:42.834Z,51200.00
2018-09-26T09:14:42.999Z,52160.00
2018-09-26T09:15:42.895Z,49760.00
2018-09-26T09:16:42.927Z,44896.00
2018-09-26T09:17:42.970Z,45440.00
2018-09-26T09:18:42.985Z,36864.00
2018-09-26T09:19:43.018Z,31168.00
2018-09-26T09:20:43.049Z,36736.00
2018-09-26T09:21:43.078Z,42144.00
2018-09-26T09:22:43.107Z,43584.00
2018-09-26T09:23:43.139Z,45248.00
2018-09-26T09:24:43.170Z,50208.00
2018-09-26T09:25:43.198Z,45856.00
2018-09-26T09:26:43.229Z,46464.00
2018-09-26T09:27:43.323Z,46688.00
2018-09-26T09:28:43.290Z,47808.00
2018-09-26T09:29:43.324Z,47456.00
2018-09-26T09:30:43.351Z,51936.00
2018-09-26T09:31:43.381Z,48064.00
2018-09-26T09:32:43.413Z,49248.00
2018-09-26T09:33:43.443Z,52384.00
2018-09-26T09:34:43.471Z,51616.00
2018-09-26T09:35:43.504Z,50944.00
2018-09-26T09:36:43.536Z,46208.00
2018-09-26T09:37:43.564Z,46688.00
2018-09-26T09:38:43.597Z,54880.00
2018-09-26T09:39:43.628Z,47328.00
2018-09-26T09:40:43.656Z,47264.00
2018-09-26T09:41:43.686Z,39488.00
2018-09-26T09:42:43.719Z,48704.00
2018-09-26T09:43:43.750Z,53504.00
2018-09-26T09:44:43.783Z,50304.00
2018-09-26T09:45:43.811Z,50816.00
2018-09-26T09:46:43.841Z,49408.00
2018-09-26T09:47:43.873Z,43136.00
2018-09-26T09:48:43.905Z,48512.00
2018-09-26T09:49:43.940Z,45536.00
2018-09-26T09:50:43.964Z,49728.00
2018-09-26T09:51:44.067Z,44320.00
2018-09-26T09:52:44.045Z,46912.00
2018-09-26T09:53:44.061Z,47968.00
2018-09-26T09:54:44.092Z,44320.00
2018-09-26T09:55:44.122Z,47040.00
2018-09-26T09:56:44.154Z,50656.00
2018-09-26T09:57:44.184Z,54912.00
2018-09-26T09:58:44.215Z,59136.00
2018-09-26T09:59:44.247Z,57440.00
2018-09-26T10:00:44.280Z,56160.00
2018-09-26T10:01:44.313Z,57440.00
2018-09-26T10:02:44.456Z,58720.00
2018-09-26T10:03:44.376Z,59808.00
2018-09-26T10:04:44.405Z,62112.00
2018-09-26T10:05:44.438Z,54688.00
2018-09-26T10:06:44.466Z,50656.00
2018-09-26T10:07:44.498Z,50912.00
2018-09-26T10:08:44.613Z,52160.00
2018-09-26T10:09:44.564Z,52832.00
2018-09-26T10:10:44.596Z,54848.00
2018-09-26T10:11:44.625Z,55264.00
2018-09-26T10:12:44.659Z,49536.00
2018-09-26T10:13:44.692Z,45344.00
2018-09-26T10:14:44.722Z,48704.00
2018-09-26T10:15:44.754Z,48416.00
2018-09-26T10:16:44.790Z,46240.00
2018-09-26T10:17:44.817Z,45088.00
2018-09-26T10:18:44.850Z,45568.00
2018-09-26T10:19:44.880Z,43968.00
2018-09-26T10:20:44.915Z,48672.00
2018-09-26T10:21:44.947Z,44416.00
2018-09-26T10:22:44.978Z,45088.00
2018-09-26T10:23:45.012Z,40832.00
2018-09-26T10:24:45.042Z,37152.00
2018-09-26T10:25:45.073Z,35424.00
2018-09-26T10:26:45.122Z,39296.00
2018-09-26T10:27:45.135Z,42912.00
2018-09-26T10:28:45.168Z,42208.00
2018-09-26T10:29:45.199Z,38944.00
2018-09-26T10:30:45.234Z,40768.00
2018-09-26T10:31:45.318Z,45312.00
2018-09-26T10:32:45.296Z,45600.00
2018-09-26T10:33:45.328Z,44896.00
2018-09-26T10:34:45.459Z,50368.00
2018-09-26T10:35:45.388Z,54592.00
2018-09-26T10:36:45.421Z,54400.00
2018-09-26T10:37:45.450Z,54848.00
2018-09-26T10:38:45.483Z,58112.00
2018-09-26T10:39:45.516Z,54912.00
2018-09-26T10:40:45.590Z,57312.00
2018-09-26T10:41:45.580Z,56384.00
2018-09-26T10:42:45.607Z,60000.00
2018-09-26T10:43:45.639Z,62624.00
2018-09-26T10:44:45.724Z,63584.00
2018-09-26T10:45:45.704Z,63520.00
2018-09-26T10:46:45.832Z,63744.00
2018-09-26T10:47:45.768Z,59360.00
2018-09-26T10:48:45.803Z,57696.00
2018-09-26T10:49:45.831Z,63008.00
2018-09-26T10:50:46.189Z,64736.00
2018-09-26T10:51:45.895Z,60448.00
2018-09-26T10:52:45.930Z,62528.00
2018-09-26T10:53:45.963Z,58400.00
2018-09-26T10:54:45.995Z,61728.00
2018-09-26T10:55:46.025Z,65184.00
2018-09-26T10:56:46.093Z,61952.00
2018-09-26T10:57:46.093Z,61504.00
2018-09-26T10:58:46.124Z,62432.00
2018-09-26T10:59:46.156Z,62816.00
2018-09-26T11:00:46.189Z,60416.00
2018-09-26T11:01:46.245Z,61728.00
2018-09-26T11:02:46.255Z,61600.00
2018-09-26T11:03:46.288Z,64640.00
2018-09-26T11:04:46.322Z,65696.00
2018-09-26T11:05:46.356Z,68928.00
2018-09-26T11:06:46.388Z,64608.00
2018-09-26T11:07:46.423Z,64416.00
2018-09-26T11:08:46.457Z,63072.00
2018-09-26T11:09:46.493Z,65728.00
2018-09-26T11:11:29.082Z,70368.00
2018-09-26T11:12:29.167Z,68928.00
2018-09-26T11:13:29.145Z,65504.00
2018-09-26T11:14:29.178Z,73408.00
2018-09-26T11:15:29.213Z,73632.00
2018-09-26T11:16:29.479Z,76384.00
2018-09-26T11:17:29.482Z,76672.00
2018-09-26T11:18:29.314Z,73920.00
2018-09-26T11:19:29.347Z,71968.00
2018-09-26T11:20:29.382Z,74880.00
2018-09-26T11:21:29.416Z,71072.00
2018-09-26T11:22:29.449Z,71616.00
2018-09-26T11:23:29.484Z,70624.00
2018-09-26T11:24:29.517Z,74304.00
2018-09-26T11:25:29.552Z,72736.00
2018-09-26T11:26:29.610Z,73376.00
2018-09-26T11:27:29.621Z,73600.00
2018-09-26T11:28:29.856Z,73248.00
2018-09-26T11:29:29.689Z,73280.00
2018-09-26T11:30:29.743Z,71680.00
2018-09-26T11:31:30.080Z,79168.00
2018-09-26T11:32:29.811Z,83936.00
2018-09-26T11:33:30.000Z,83328.00
2018-09-26T11:34:29.859Z,82848.00
2018-09-26T11:35:29.897Z,80224.00
2018-09-26T11:36:30.936Z,79680.00
2018-09-26T11:37:31.172Z,79040.00
2018-09-26T11:38:29.996Z,82944.00
2018-09-26T11:39:30.027Z,81216.00
2018-09-26T11:40:30.063Z,69792.00
2018-09-26T11:41:30.100Z,82272.00
2018-09-26T11:42:30.144Z,81984.00
2018-09-26T11:43:30.170Z,82944.00
2018-09-26T11:44:30.215Z,78592.00
2018-09-26T11:45:30.241Z,78144.00
2018-09-26T11:46:30.274Z,77728.00
2018-09-26T11:47:30.310Z,76096.00
2018-09-26T11:48:30.347Z,74176.00
2018-09-26T11:49:30.384Z,72544.00
2018-09-26T11:50:30.419Z,73920.00
2018-09-26T11:51:30.456Z,75808.00
2018-09-26T11:52:30.495Z,74624.00
2018-09-26T11:53:30.526Z,73504.00
2018-09-26T11:54:30.561Z,76960.00
2018-09-26T11:55:30.596Z,77664.00
2018-09-26T11:56:30.703Z,79744.00
2018-09-26T11:57:30.670Z,78816.00
2018-09-26T11:58:30.705Z,74880.00
2018-09-26T11:59:30.739Z,72192.00
2018-09-26T12:00:30.780Z,67264.00
2018-09-26T12:01:30.815Z,72736.00
2018-09-26T12:02:30.961Z,69536.00
2018-09-26T12:03:30.885Z,65152.00
2018-09-26T12:04:30.918Z,68416.00
2018-09-26T12:05:30.956Z,62432.00
2018-09-26T12:06:30.988Z,64224.00
2018-09-26T12:07:31.034Z,69920.00
2018-09-26T12:08:31.062Z,70880.00
2018-09-26T12:09:31.098Z,77152.00
2018-09-26T12:10:31.132Z,77664.00
2018-09-26T12:11:31.166Z,74944.00
2018-09-26T12:12:31.201Z,75552.00
2018-09-26T12:13:31.236Z,77408.00
2018-09-26T12:14:31.272Z,77504.00
2018-09-26T12:15:31.309Z,78624.00
2018-09-26T12:16:31.344Z,78656.00
2018-09-26T12:17:31.580Z,80128.00
2018-09-26T12:18:31.413Z,76896.00
2018-09-26T12:19:31.449Z,45248.00
2018-09-26T12:20:31.483Z,27776.00
2018-09-26T12:21:31.521Z,26208.00
2018-09-26T12:22:31.614Z,25888.00
2018-09-26T12:23:31.590Z,25344.00
2018-09-26T12:24:31.624Z,24768.00
2018-09-26T12:25:31.662Z,24384.00
2018-09-26T12:26:31.695Z,24320.00